地図

経路データ

SID SEASON NUMBER BASIN SUBBASIN NAME ISO_TIME NATURE LAT LON WMO_WIND WMO_PRES WMO_AGENCY TRACK_TYPE DIST2LAND LANDFALL IFLAG USA_AGENCY USA_ATCF_ID USA_LAT USA_LON USA_RECORD USA_STATUS USA_WIND USA_PRES USA_SSHS USA_R34_NE USA_R34_SE USA_R34_SW USA_R34_NW USA_R50_NE USA_R50_SE USA_R50_SW USA_R50_NW USA_R64_NE USA_R64_SE USA_R64_SW USA_R64_NW USA_POCI USA_ROCI USA_RMW USA_EYE TOKYO_LAT TOKYO_LON TOKYO_GRADE TOKYO_WIND TOKYO_PRES TOKYO_R50_DIR TOKYO_R50_LONG TOKYO_R50_SHORT TOKYO_R30_DIR TOKYO_R30_LONG TOKYO_R30_SHORT TOKYO_LAND CMA_LAT CMA_LON CMA_CAT CMA_WIND CMA_PRES HKO_LAT HKO_LON HKO_CAT HKO_WIND HKO_PRES NEWDELHI_LAT NEWDELHI_LON NEWDELHI_GRADE NEWDELHI_WIND NEWDELHI_PRES NEWDELHI_CI NEWDELHI_DP NEWDELHI_POCI REUNION_LAT REUNION_LON REUNION_TYPE REUNION_WIND REUNION_PRES REUNION_TNUM REUNION_CI REUNION_RMW REUNION_R34_NE REUNION_R34_SE REUNION_R34_SW REUNION_R34_NW REUNION_R50_NE REUNION_R50_SE REUNION_R50_SW REUNION_R50_NW REUNION_R64_NE REUNION_R64_SE REUNION_R64_SW REUNION_R64_NW BOM_LAT BOM_LON BOM_TYPE BOM_WIND BOM_PRES BOM_TNUM BOM_CI BOM_RMW BOM_R34_NE BOM_R34_SE BOM_R34_SW BOM_R34_NW BOM_R50_NE BOM_R50_SE BOM_R50_SW BOM_R50_NW BOM_R64_NE BOM_R64_SE BOM_R64_SW BOM_R64_NW BOM_ROCI BOM_POCI BOM_EYE BOM_POS_METHOD BOM_PRES_METHOD NADI_LAT NADI_LON NADI_CAT NADI_WIND NADI_PRES WELLINGTON_LAT WELLINGTON_LON WELLINGTON_WIND WELLINGTON_PRES DS824_LAT DS824_LON DS824_STAGE DS824_WIND DS824_PRES TD9636_LAT TD9636_LON TD9636_STAGE TD9636_WIND TD9636_PRES TD9635_LAT TD9635_LON TD9635_WIND TD9635_PRES TD9635_ROCI NEUMANN_LAT NEUMANN_LON NEUMANN_CLASS NEUMANN_WIND NEUMANN_PRES MLC_LAT MLC_LON MLC_CLASS MLC_WIND MLC_PRES USA_GUST BOM_GUST BOM_GUST_PER REUNION_GUST REUNION_GUST_PER USA_SEAHGT USA_SEARAD_NE USA_SEARAD_SE USA_SEARAD_SW USA_SEARAD_NW STORM_SPEED STORM_DIR
1942054S17054 1942 11 SI MM NOT_NAMED 1942-02-22 18:00:00 NR -17.2000 53.6000 spur-merge 385 375 __________O___ -1 -17.2000 53.6000 2 6 217
1942054S17054 1942 11 SI MM NOT_NAMED 1942-02-22 21:00:00 NR -17.4314 53.4191 spur-merge 375 370 __________P___ -1 -17.4314 53.4191 2 7 217
1942054S17054 1942 11 SI MM NOT_NAMED 1942-02-23 00:00:00 TS -17.7701 53.1553 spur-merge 377 361 _________OP___ -1 -18.1000 52.9000 TC 35 -17.6602 53.2404 2 7 216
1942054S17054 1942 11 SI MM NOT_NAMED 1942-02-23 03:00:00 TS -18.0226 52.9610 spur-merge 365 353 _________PP___ -1 -18.3000 52.7501 TC 35 -17.8838 53.0665 2 6 216
1942054S17054 1942 11 SI MM NOT_NAMED 1942-02-23 06:00:00 TS -18.2714 52.7714 spur-merge 355 337 _________OO___ -1 -18.5000 52.6000 TC 35 -18.1000 52.9000 2 6 216
1942054S17054 1942 11 SI MM NOT_NAMED 1942-02-23 09:00:00 TS -18.5036 52.5963 spur-merge 339 330 _________PP___ -1 -18.7000 52.4500 TC 35 -18.3071 52.7426 2 5 215
1942054S17054 1942 11 SI MM NOT_NAMED 1942-02-23 12:00:00 TS -18.7037 52.4461 spur-merge 321 313 _________OP___ -1 -18.9000 52.3000 TC 35 -18.5074 52.5923 2 5 215
1942054S17054 1942 11 SI MM NOT_NAMED 1942-02-23 15:00:00 TS -18.9020 52.2979 spur-merge 315 308 _________PP___ -1 -19.1000 52.1500 TC 35 -18.7040 52.4458 2 5 215
1942054S17054 1942 11 SI MM NOT_NAMED 1942-02-23 18:00:00 TS -19.1000 52.1500 spur-merge 311 295 _________OO___ -1 -19.3000 52.0000 TC 35 -18.9000 52.3000 2 5 215
1942054S17054 1942 11 SI MM NOT_NAMED 1942-02-23 21:00:00 TS -19.2921 52.0056 spur-merge 300 294 _________PP___ -1 -19.4925 51.8574 TC 35 -19.0918 52.1539 2 5 215
1942054S17054 1942 11 SI MM NOT_NAMED 1942-02-24 00:00:00 TS -19.4925 51.8536 spur-merge 297 280 _________OP___ -1 -19.7000 51.7000 TC 35 -19.2849 52.0072 2 5 216
1942054S17054 1942 11 SI MM NOT_NAMED 1942-02-24 03:00:00 TS -19.7140 51.6785 spur-merge 283 271 _________PP___ -1 -19.9425 51.5000 TC 35 -19.4856 51.8569 2 6 216
1942054S17054 1942 11 SI MM NOT_NAMED 1942-02-24 06:00:00 TS -19.9500 51.5000 spur-merge 271 265 _________OO___ -1 -20.2000 51.3000 TC 35 -19.7000 51.7000 2 6 214
1942054S17054 1942 11 SI MM NOT_NAMED 1942-02-24 09:00:00 TS -20.1870 51.3450 spur-merge 261 252 _________PP___ -1 -20.4424 51.1499 TC 35 -19.9315 51.5401 2 6 211
1942054S17054 1942 11 SI MM NOT_NAMED 1942-02-24 12:00:00 TS -20.4387 51.1861 spur-merge 254 242 _________OP___ -1 -20.7000 51.0000 TC 35 -20.1774 51.3722 2 6 211
1942054S17054 1942 11 SI MM NOT_NAMED 1942-02-24 15:00:00 TS -20.7173 51.0041 spur-merge 242 231 _________PP___ -1 -21.0000 50.8150 TC 35 -20.4346 51.1932 2 7 213
1942054S17054 1942 11 SI MM NOT_NAMED 1942-02-24 18:00:00 TS -21.0000 50.8000 spur-merge 236 226 _________OO___ -1 -21.3000 50.6000 TC 35 -20.7000 51.0000 2 7 217
1942054S17054 1942 11 SI MM NOT_NAMED 1942-02-24 21:00:00 TS -21.2470 50.5809 spur-merge 226 212 _________PP___ -1 -21.5425 50.3648 TC 35 -20.9515 50.7971 2 7 220
1942054S17054 1942 11 SI MM NOT_NAMED 1942-02-25 00:00:00 TS -21.5062 50.3397 spur-merge 204 189 _________OP___ -1 -21.8000 50.1000 TC 35 -21.2124 50.5794 2 7 220
1942054S17054 1942 11 SI MM NOT_NAMED 1942-02-25 03:00:00 TS -21.8098 50.0735 spur-merge 191 168 _________PP___ -1 -22.1275 49.8000 TC 35 -21.4921 50.3470 2 8 218
1942054S17054 1942 11 SI MM NOT_NAMED 1942-02-25 06:00:00 TS -22.1500 49.8000 spur-merge 168 159 _________OO___ -1 -22.5000 49.5000 TC 35 -21.8000 50.1000 2 9 216
1942054S17054 1942 11 SI MM NOT_NAMED 1942-02-25 09:00:00 TS -22.5017 49.5367 spur-merge 154 147 _________PP___ -1 -22.8774 49.2422 TC 35 -22.1260 49.8311 2 9 213
1942054S17054 1942 11 SI MM NOT_NAMED 1942-02-25 12:00:00 TS -22.8913 49.2749 spur-merge 150 130 _________OP___ -1 -23.3000 49.0000 TC 35 -22.4827 49.5497 2 10 211
1942054S17054 1942 11 SI MM NOT_NAMED 1942-02-25 15:00:00 TS -23.3290 49.0055 spur-merge 130 114 _________PP___ -1 -23.7850 48.7425 TC 35 -22.8729 49.2685 2 10 208
1942054S17054 1942 11 SI MM NOT_NAMED 1942-02-25 18:00:00 TS -23.8000 48.7500 spur-merge 120 103 _________OO___ -1 -24.3000 48.5000 TC 35 -23.3000 49.0000 2 11 205
1942054S17054 1942 11 SI MM NOT_NAMED 1942-02-25 21:00:00 TS -24.3347 48.4996 spur-merge 106 103 _________PP___ -1 -24.8525 48.2701 TC 35 -23.8169 48.7290 2 11 202
1942054S17054 1942 11 SI MM NOT_NAMED 1942-02-26 00:00:00 TS -24.8300 48.2881 spur-merge 106 101 _________OP___ -1 -25.3000 48.1000 TC 35 -24.3601 48.4763 2 9 201
1942054S17054 1942 11 SI MM NOT_NAMED 1942-02-26 03:00:00 TS -25.1841 48.1400 spur-merge 103 103 _________PP___ -1 -25.4949 48.0197 TC 35 -24.8732 48.2603 2 7 199
1942054S17054 1942 11 SI MM NOT_NAMED 1942-02-26 06:00:00 TS -25.4500 48.0500 spur-merge 110 106 _________OO___ -1 -25.6000 48.0000 TC 35 -25.3000 48.1000 2 5 194
1942054S17054 1942 11 SI MM NOT_NAMED 1942-02-26 09:00:00 TS -25.6803 48.0004 spur-merge 119 119 _________PP___ -1 -25.7925 47.9925 TC 35 -25.5682 48.0083 2 4 188
1942054S17054 1942 11 SI MM NOT_NAMED 1942-02-26 12:00:00 TS -25.8736 47.9869 spur-merge 134 134 _________OP___ -1 -26.0000 48.0000 TC 35 -25.7472 47.9738 2 4 183
1942054S17054 1942 11 SI MM NOT_NAMED 1942-02-26 15:00:00 TS -26.0426 47.9850 spur-merge 141 141 _________PP___ -1 -26.2075 47.9925 TC 35 -25.8776 47.9775 2 3 0
1942054S17054 1942 11 SI MM NOT_NAMED 1942-02-26 18:00:00 TS -26.2000 48.0000 spur-merge 158 158 _________OO___ -1 -26.4000 48.0000 TC 35 -26.0000 48.0000 2 3 0
1942054S17054 1942 11 SI MM NOT_NAMED 1942-02-26 21:00:00 TS -26.3253 47.9821 spur-merge 167 167 _________PP___ -1 -26.5124 48.0054 TC 35 -26.1381 47.9588 2 3 0
1942054S17054 1942 11 SI MM NOT_NAMED 1942-02-27 00:00:00 TS -26.4910 48.0196 spur-merge 185 185 _________OP___ -1 -26.7000 48.1000 TC 35 -26.2819 47.9393 2 5 161
1942054S17054 1942 11 SI MM NOT_NAMED 1942-02-27 03:00:00 TS -26.7899 48.1611 spur-merge 224 224 _________PP___ -1 -27.1200 48.3472 TC 35 -26.4598 47.9750 2 7 153
1942054S17054 1942 11 SI MM NOT_NAMED 1942-02-27 06:00:00 TS -27.1500 48.4000 spur-merge 263 272 _________OO___ -1 -27.6000 48.7000 TC 35 -26.7000 48.1000 2 9 146
1942054S17054 1942 11 SI MM NOT_NAMED 1942-02-27 09:00:00 TS -27.5162 48.7141 spur-merge 317 317 _________PP___ -1 -27.9725 49.0852 TC 35 -27.0599 48.3430 2 10 140
1942054S17054 1942 11 SI MM NOT_NAMED 1942-02-27 12:00:00 TS -27.8889 49.0890 spur-merge 376 376 _________OP___ -1 -28.3000 49.5000 TC 35 -27.4778 48.6781 2 10 138
1942054S17054 1942 11 SI MM NOT_NAMED 1942-02-27 15:00:00 TS -28.2645 49.4835 spur-merge 435 435 _________PP___ -1 -28.6223 49.8927 TC 35 -27.9067 49.0743 2 9 135
1942054S17054 1942 11 SI MM NOT_NAMED 1942-02-27 18:00:00 TS -28.5571 49.8429 spur-merge 479 479 _________OO___ -1 -28.9000 50.3000 TC 35 -28.3000 49.5000 2 8 130
1942054S17054 1942 11 SI MM NOT_NAMED 1942-02-27 21:00:00 TS -28.7876 50.1984 spur-merge 520 520 _________PP___ -1 -29.1179 50.7397 TC 35 -28.6224 49.9278 2 8 124
1942054S17054 1942 11 SI MM NOT_NAMED 1942-02-28 00:00:00 TS -28.9873 50.5647 spur-merge 562 562 _________OP___ -1 -29.3000 51.2000 TC 35 -28.8831 50.3529 2 6 122
1942054S17054 1942 11 SI MM NOT_NAMED 1942-02-28 03:00:00 NR -29.1023 50.7765 spur-merge 583 583 __________P___ -1 TC -29.1023 50.7765 2 6 119
1942054S17054 1942 11 SI MM NOT_NAMED 1942-02-28 06:00:00 NR -29.3000 51.2000 spur-merge 626 __________O___ -1 -29.3000 51.2000 2 8 118

IBTrACS Databaseについて

本データベースは、米国NOAAが公開する1842年以降の世界の熱帯低気圧のベストトラックデータアーカイブInternational Best Track Archive for Climate Stewardship (IBTrACS)を、ウェブで閲覧しやすい形式に変換したものです。

最終更新日:2021-10-25